Atromitos — V7PP2 — position and weather

sailwx.info

Track history (hours):
 
Tides and Currents Weather Stations Pressure Air Temp Water Temp Dewpoint Dewpoint Depression Visibility Wind Speed Wind Dir Waves Ship Positions

Atromitos

Last reported at 2018-Jun-23 13:59 UTC. Time now 2018-Jun-23 14:00 UTC.
Position N 51°54' E 003°29'.

Length 336 m; draft 11.1 m.

Type: Tanker. MMSI: 538006651.

Date/timePositionNaut miles runAvg speedWind from/ knotsBaromVisibWave heightAir tempDewpointWater temp
2018-Jun-23 13:59N 51°54' E 003°29'0 0.2
2018-Jun-23 13:29N 51°54' E 003°29'0 0.1
2018-Jun-23 12:59N 51°54' E 003°29'0 0.0
2018-Jun-23 12:29N 51°54' E 003°29'0 0.1
2018-Jun-23 11:59N 51°54' E 003°29'0 0.0
2018-Jun-23 11:17N 51°54' E 003°29'0 0.0
2018-Jun-23 10:50N 51°54' E 003°29'0 0.0
2018-Jun-23 09:53N 51°54' E 003°29'0 0.0
2018-Jun-23 09:29N 51°54' E 003°29'0 0.2
2018-Jun-23 08:41N 51°54' E 003°29'0 0.2
2018-Jun-23 08:14N 51°54' E 003°29'0 0.1
2018-Jun-23 07:50N 51°54' E 003°29'0 0.1
2018-Jun-23 07:08N 51°54' E 003°29'0 0.2
2018-Jun-23 06:59N 51°54' E 003°29'0 0.1
2018-Jun-23 05:38N 51°54' E 003°29'0 0.1
2018-Jun-23 05:20N 51°54' E 003°29'0 0.0
2018-Jun-23 04:59N 51°54' E 003°29'0 0.0
2018-Jun-23 04:29N 51°54' E 003°29'0 0.0
2018-Jun-23 03:50N 51°54' E 003°29'0 0.1
2018-Jun-23 03:29N 51°54' E 003°29'0 0.0
2018-Jun-23 02:56N 51°54' E 003°29'0 0.0
2018-Jun-23 02:23N 51°54' E 003°29'0 0.1
2018-Jun-23 01:47N 51°54' E 003°29'0 0.1
2018-Jun-23 01:30N 51°54' E 003°29'0 0.1
2018-Jun-23 00:56N 51°54' E 003°29'0 0.1
2018-Jun-22 23:14N 51°54' E 003°29'0 0.0
2018-Jun-22 22:44N 51°54' E 003°29'0 0.0
2018-Jun-22 22:17N 51°54' E 003°29'0 0.0
2018-Jun-22 21:47N 51°54' E 003°29'0 0.0
2018-Jun-22 21:26N 51°54' E 003°29'0 0.2
2018-Jun-22 20:50N 51°54' E 003°29'0 0.1
2018-Jun-22 19:35N 51°54' E 003°29'0 0.2
2018-Jun-22 19:17N 51°54' E 003°29'0 0.0
2018-Jun-22 18:59N 51°54' E 003°29'0 0.1
2018-Jun-22 18:23N 51°54' E 003°29'0 0.0
2018-Jun-22 16:44N 51°54' E 003°29'0 0.0
2018-Jun-22 16:29N 51°54' E 003°29'0 0.0
2018-Jun-22 13:38N 51°54' E 003°29'0 0.1
2018-Jun-22 13:05N 51°54' E 003°29'0 0.1
2018-Jun-22 12:41N 51°54' E 003°29'0 0.0
2018-Jun-22 09:08N 51°54' E 003°29'0 0.1
2018-Jun-22 08:44N 51°54' E 003°29'0 0.0
2018-Jun-22 05:29N 51°54' E 003°29'0 0.0
2018-Jun-22 04:17N 51°54' E 003°29'0 0.0
2018-Jun-22 03:50N 51°54' E 003°29'0 0.0
2018-Jun-22 01:32N 51°54' E 003°29'0 0.1
2018-Jun-22 01:14N 51°54' E 003°29'0 0.0
2018-Jun-22 00:47N 51°54' E 003°29'0 0.1
2018-Jun-21 20:47N 51°54' E 003°29'0 1.5
2018-Jun-21 20:28N 51°55' E 003°30'1 2.2
2018-Jun-21 20:00N 51°54' E 003°28'3 6.0
2018-Jun-21 19:30N 51°55' E 003°23'5 9.8
2018-Jun-21 18:59N 51°59' E 003°21'510.4
2018-Jun-21 18:29N 52°03' E 003°28'713.7
2018-Jun-21 18:00N 52°03' E 003°39'713.9
2018-Jun-21 17:30N 52°04' E 003°50'4 8.0
2018-Jun-21 17:00N 52°03' E 003°56'2 3.9
2018-Jun-21 16:30N 52°01' E 003°57'612.4
2018-Jun-21 16:00N 51°58' E 004°07'3 4.7
2018-Jun-21 15:28N 51°57' E 004°10'0 0.0
2018-Jun-21 14:58N 51°57' E 004°10'0 0.0
2018-Jun-21 14:28N 51°57' E 004°10'0 0.0
2018-Jun-21 13:55N 51°57' E 004°10'0 0.0
2018-Jun-21 13:28N 51°57' E 004°10'0 0.0
2018-Jun-21 12:55N 51°57' E 004°10'0 0.0
2018-Jun-21 12:28N 51°57' E 004°10'0 0.0
2018-Jun-21 11:58N 51°57' E 004°10'0 0.0
2018-Jun-21 11:25N 51°57' E 004°10'0 0.0
2018-Jun-21 10:58N 51°57' E 004°10'0 0.0
2018-Jun-21 10:28N 51°57' E 004°10'0 0.0
2018-Jun-21 09:58N 51°57' E 004°10'0 0.0
2018-Jun-21 09:28N 51°57' E 004°10'0 0.0
2018-Jun-21 08:58N 51°57' E 004°10'0 0.0
2018-Jun-21 08:28N 51°57' E 004°10'0 0.0
2018-Jun-21 07:58N 51°57' E 004°10'0 0.0
2018-Jun-21 07:28N 51°57' E 004°10'0 0.0
2018-Jun-21 06:58N 51°57' E 004°10'0 0.0
2018-Jun-21 06:28N 51°57' E 004°10'0 0.0
2018-Jun-21 05:58N 51°57' E 004°10'0 0.0
2018-Jun-21 05:28N 51°57' E 004°10'0 0.0
2018-Jun-21 04:58N 51°57' E 004°10'0 0.0
2018-Jun-21 04:28N 51°57' E 004°10'0 0.0
2018-Jun-21 03:58N 51°57' E 004°10'0 0.0
2018-Jun-21 03:28N 51°57' E 004°10'0 0.0
2018-Jun-21 02:58N 51°57' E 004°10'0 0.0
2018-Jun-21 02:28N 51°57' E 004°10'0 0.0
2018-Jun-21 01:58N 51°57' E 004°10'0 0.0
2018-Jun-21 01:28N 51°57' E 004°10'0 0.0
2018-Jun-21 00:58N 51°57' E 004°10'0 0.0
2018-Jun-21 00:28N 51°57' E 004°10'0 0.0
2018-Jun-20 23:58N 51°57' E 004°10'0 0.0
2018-Jun-20 23:28N 51°57' E 004°10'0 0.0
2018-Jun-20 22:58N 51°57' E 004°10'0 0.0
2018-Jun-20 22:28N 51°57' E 004°10'0 0.0
2018-Jun-20 21:52N 51°57' E 004°10'0 0.0
2018-Jun-20 21:28N 51°57' E 004°10'0 0.0
2018-Jun-20 20:55N 51°57' E 004°10'0 0.0
2018-Jun-20 20:25N 51°57' E 004°10'0 0.0
2018-Jun-20 19:58N 51°57' E 004°10'0 0.0
2018-Jun-20 19:28N 51°57' E 004°10'0 0.0
2018-Jun-20 18:58N 51°57' E 004°10'0 0.0
2018-Jun-20 18:28N 51°57' E 004°10'0 0.0
2018-Jun-20 17:58N 51°57' E 004°10'0 0.0
2018-Jun-20 17:28N 51°57' E 004°10'0 0.0
2018-Jun-20 16:55N 51°57' E 004°10'0 0.0
2018-Jun-20 16:25N 51°57' E 004°10'0 0.0
2018-Jun-20 15:58N 51°57' E 004°10'0 0.0
2018-Jun-20 15:28N 51°57' E 004°10'0 0.0
2018-Jun-20 14:58N 51°57' E 004°10'0 0.0
2018-Jun-20 14:28N 51°57' E 004°10'0 0.0
2018-Jun-20 13:58N 51°57' E 004°10'0 0.0
2018-Jun-20 13:28N 51°57' E 004°10'0 0.0
2018-Jun-20 12:58N 51°57' E 004°10'0 0.0
2018-Jun-20 12:28N 51°57' E 004°10'0 0.0
2018-Jun-20 11:58N 51°57' E 004°10'0 0.0
2018-Jun-20 11:28N 51°57' E 004°10'0 0.0
2018-Jun-20 10:58N 51°57' E 004°10'0 0.0
2018-Jun-20 10:28N 51°57' E 004°10'0 0.0
2018-Jun-20 09:55N 51°57' E 004°10'0 0.0
2018-Jun-20 09:28N 51°57' E 004°10'0 0.0
2018-Jun-20 08:58N 51°57' E 004°10'0 0.0
2018-Jun-20 08:28N 51°57' E 004°10'0 0.0
2018-Jun-20 07:58N 51°57' E 004°10'0 0.0
2018-Jun-20 07:22N 51°57' E 004°10'0 0.0
2018-Jun-20 06:58N 51°57' E 004°10'0 0.0
2018-Jun-20 06:28N 51°57' E 004°10'0 0.0
2018-Jun-20 06:01N 51°57' E 004°10'0 0.0
2018-Jun-20 05:28N 51°57' E 004°10'0 0.0
2018-Jun-20 05:01N 51°57' E 004°10'0 0.0
2018-Jun-20 04:28N 51°57' E 004°10'0 0.0
2018-Jun-20 03:58N 51°57' E 004°10'0 0.0
2018-Jun-20 03:28N 51°57' E 004°10'0 0.0
2018-Jun-20 02:58N 51°57' E 004°10'0 0.0
2018-Jun-20 02:22N 51°57' E 004°10'0 0.0
2018-Jun-20 02:01N 51°57' E 004°10'0 0.0
2018-Jun-20 01:30N 51°57' E 004°10'0 0.0
2018-Jun-20 01:01N 51°57' E 004°10'0 0.0
2018-Jun-20 00:27N 51°57' E 004°10'0 0.0
2018-Jun-20 00:01N 51°57' E 004°10'0 0.0
2018-Jun-19 23:30N 51°57' E 004°10'0 0.0
2018-Jun-19 23:01N 51°57' E 004°10'0 0.0
2018-Jun-19 22:31N 51°57' E 004°10'0 0.0
2018-Jun-19 22:01N 51°57' E 004°10'0 0.0
2018-Jun-19 21:31N 51°57' E 004°10'0 0.0
2018-Jun-19 21:00N 51°57' E 004°10'0 0.0
2018-Jun-19 20:27N 51°57' E 004°10'0 0.0
2018-Jun-19 19:58N 51°57' E 004°10'0 0.0
2018-Jun-19 19:28N 51°57' E 004°10'0 0.0
2018-Jun-19 19:00N 51°57' E 004°10'0 0.0
2018-Jun-19 18:28N 51°57' E 004°10'0 0.0
2018-Jun-19 18:00N 51°57' E 004°10'0 0.0
2018-Jun-19 17:30N 51°57' E 004°10'0 0.0
2018-Jun-19 17:00N 51°57' E 004°10'0 0.0
2018-Jun-19 16:27N 51°57' E 004°10'0 0.0
2018-Jun-19 16:00N 51°57' E 004°10'0 0.0
2018-Jun-19 15:31N 51°57' E 004°10'0 0.0
2018-Jun-19 15:00N 51°57' E 004°10'0 0.0
2018-Jun-19 14:31N 51°57' E 004°10'0 0.0
2018-Jun-19 13:58N 51°57' E 004°10'0 0.0
2018-Jun-19 13:31N 51°57' E 004°10'0 0.0
2018-Jun-19 12:57N 51°57' E 004°10'0 0.0
2018-Jun-19 12:30N 51°57' E 004°10'0 0.0
2018-Jun-19 11:58N 51°57' E 004°10'0 0.0
2018-Jun-19 11:30N 51°57' E 004°10'0 0.0
2018-Jun-19 11:00N 51°57' E 004°10'0 0.0
2018-Jun-19 10:30N 51°57' E 004°10'0 0.0
2018-Jun-19 10:01N 51°57' E 004°10'0 0.0
2018-Jun-19 09:28N 51°57' E 004°10'0 0.0
2018-Jun-19 09:01N 51°57' E 004°10'0 0.0
2018-Jun-19 08:27N 51°57' E 004°10'0 0.0
2018-Jun-19 07:58N 51°57' E 004°10'0 0.0
2018-Jun-19 07:30N 51°57' E 004°10'0 0.0
2018-Jun-19 07:00N 51°57' E 004°10'0 0.0
2018-Jun-19 06:30N 51°57' E 004°10'0 0.0
2018-Jun-19 05:51N 51°57' E 004°10'0 0.0
2018-Jun-19 05:27N 51°57' E 004°10'0 0.0
2018-Jun-19 04:57N 51°57' E 004°10'0 0.0
2018-Jun-19 04:30N 51°57' E 004°10'0 0.0
2018-Jun-19 04:00N 51°57' E 004°10'0 0.0
2018-Jun-19 03:24N 51°57' E 004°10'0 0.0
2018-Jun-19 02:57N 51°57' E 004°10'0 0.0
2018-Jun-19 02:27N 51°57' E 004°10'0 0.0
2018-Jun-19 02:00N 51°57' E 004°10'0 0.0
2018-Jun-19 01:30N 51°57' E 004°10'0 0.0
2018-Jun-19 01:00N 51°57' E 004°10'0 0.0
2018-Jun-19 00:30N 51°57' E 004°10'0 0.0
2018-Jun-18 23:57N 51°57' E 004°10'0 0.0
2018-Jun-18 23:30N 51°57' E 004°10'0 0.0
2018-Jun-18 23:00N 51°57' E 004°10'0 0.0
2018-Jun-18 22:30N 51°57' E 004°10'0 0.0
2018-Jun-18 21:54N 51°57' E 004°10'0 0.0
2018-Jun-18 21:30N 51°57' E 004°10'0 0.0
2018-Jun-18 21:00N 51°57' E 004°10'0 0.0
2018-Jun-18 20:27N 51°57' E 004°10'0 0.0
2018-Jun-18 20:00N 51°57' E 004°10'0 0.0
2018-Jun-18 19:27N 51°57' E 004°10'0 0.0
2018-Jun-18 19:00N 51°57' E 004°10'0 0.0
2018-Jun-18 18:30N 51°57' E 004°10'0 0.1
2018-Jun-18 18:00N 51°57' E 004°10'1 1.0
2018-Jun-18 17:30N 51°56' E 004°10'1 2.7
2018-Jun-18 17:00N 51°56' E 004°12'0 0.3
2018-Jun-18 16:28N 51°56' E 004°12'0 0.0
2018-Jun-18 15:58N 51°56' E 004°12'0 0.0
2018-Jun-18 15:19N 51°56' E 004°12'0 0.0
2018-Jun-18 14:58N 51°56' E 004°12'0 0.0
2018-Jun-18 14:25N 51°56' E 004°12'0 0.0
2018-Jun-18 13:58N 51°56' E 004°12'0 0.0
2018-Jun-18 13:28N 51°56' E 004°12'0 0.0
2018-Jun-18 12:58N 51°56' E 004°12'0 0.0
2018-Jun-18 12:28N 51°56' E 004°12'0 0.0
2018-Jun-18 11:58N 51°56' E 004°12'0 0.0
2018-Jun-18 11:28N 51°56' E 004°12'0 0.0
2018-Jun-18 10:58N 51°56' E 004°12'0 0.0
2018-Jun-18 10:28N 51°56' E 004°12'0 0.0
2018-Jun-18 09:58N 51°56' E 004°12'0 0.0
2018-Jun-18 09:28N 51°56' E 004°12'0 0.0
2018-Jun-18 08:58N 51°56' E 004°12'0 0.0
2018-Jun-18 08:28N 51°56' E 004°12'0 0.0
2018-Jun-18 07:55N 51°56' E 004°12'0 0.0
2018-Jun-18 07:28N 51°56' E 004°12'0 0.0
2018-Jun-18 06:58N 51°56' E 004°12'0 0.0
2018-Jun-18 06:25N 51°56' E 004°12'0 0.0
2018-Jun-18 05:58N 51°56' E 004°12'0 0.0
2018-Jun-18 05:28N 51°56' E 004°12'0 0.0
2018-Jun-18 04:58N 51°56' E 004°12'0 0.0
2018-Jun-18 04:28N 51°56' E 004°12'0 0.0
2018-Jun-18 03:58N 51°56' E 004°12'0 0.0
2018-Jun-18 03:28N 51°56' E 004°12'0 0.0
2018-Jun-18 02:58N 51°56' E 004°12'0 0.0
2018-Jun-18 02:28N 51°56' E 004°12'0 0.0
2018-Jun-18 01:58N 51°56' E 004°12'0 0.0
2018-Jun-18 01:29N 51°56' E 004°12'0 0.0
2018-Jun-18 00:58N 51°56' E 004°12'0 0.0
2018-Jun-18 00:28N 51°56' E 004°12'0 0.0
2018-Jun-17 23:58N 51°56' E 004°12'0 0.0
2018-Jun-17 23:25N 51°56' E 004°12'0 0.0
2018-Jun-17 22:58N 51°56' E 004°12'0 0.0
2018-Jun-17 22:28N 51°56' E 004°12'0 0.0
2018-Jun-17 21:58N 51°56' E 004°12'0 0.0
2018-Jun-17 21:28N 51°56' E 004°12'0 0.0
2018-Jun-17 20:58N 51°56' E 004°12'0 0.0
2018-Jun-17 20:28N 51°56' E 004°12'0 0.0
2018-Jun-17 19:55N 51°56' E 004°12'0 0.0
2018-Jun-17 19:25N 51°56' E 004°12'0 0.0
2018-Jun-17 18:58N 51°56' E 004°12'0 0.0
2018-Jun-17 18:28N 51°56' E 004°12'0 0.0
2018-Jun-17 17:58N 51°56' E 004°12'0 0.0
2018-Jun-17 17:28N 51°56' E 004°12'0 0.0
2018-Jun-17 16:58N 51°56' E 004°12'0 0.0
2018-Jun-17 16:28N 51°56' E 004°12'0 0.0
2018-Jun-17 15:58N 51°56' E 004°12'0 0.0
2018-Jun-17 15:28N 51°56' E 004°12'0 0.0
2018-Jun-17 14:58N 51°56' E 004°12'0 0.0
2018-Jun-17 14:28N 51°56' E 004°12'0 0.0
2018-Jun-17 13:55N 51°56' E 004°12'0 0.0
2018-Jun-17 13:28N 51°56' E 004°12'0 0.0
2018-Jun-17 12:58N 51°56' E 004°12'0 0.0
2018-Jun-17 12:25N 51°56' E 004°12'0 0.0
2018-Jun-17 11:58N 51°56' E 004°12'0 0.0
2018-Jun-17 11:25N 51°56' E 004°12'0 0.0
2018-Jun-17 10:58N 51°56' E 004°12'0 0.0
2018-Jun-17 10:22N 51°56' E 004°12'0 0.0
2018-Jun-17 09:55N 51°56' E 004°12'0 0.0
2018-Jun-17 09:28N 51°56' E 004°12'0 0.0
2018-Jun-17 08:58N 51°56' E 004°12'0 0.0
2018-Jun-17 08:28N 51°56' E 004°12'0 0.0
2018-Jun-17 07:58N 51°56' E 004°12'0 0.0
2018-Jun-17 07:25N 51°56' E 004°12'0 0.0
2018-Jun-17 06:55N 51°56' E 004°12'0 0.0
2018-Jun-17 06:28N 51°56' E 004°12'0 0.0
2018-Jun-17 05:58N 51°56' E 004°12'0 0.0
2018-Jun-17 05:25N 51°56' E 004°12'0 0.0
2018-Jun-17 04:58N 51°56' E 004°12'0 0.0
2018-Jun-17 04:28N 51°56' E 004°12'0 0.0
2018-Jun-17 03:58N 51°56' E 004°12'0 0.0
2018-Jun-17 03:28N 51°56' E 004°12'0 0.0
2018-Jun-17 02:58N 51°56' E 004°12'0 0.0
2018-Jun-17 02:28N 51°56' E 004°12'0 0.0
2018-Jun-17 01:58N 51°56' E 004°12'0 0.0
2018-Jun-17 01:25N 51°56' E 004°12'0 0.0
2018-Jun-17 00:58N 51°56' E 004°12'0 0.0
2018-Jun-17 00:22N 51°56' E 004°12'0 0.0
2018-Jun-16 23:55N 51°56' E 004°12'0 0.0
2018-Jun-16 23:28N 51°56' E 004°12'0 0.0
2018-Jun-16 22:58N 51°56' E 004°12'0 0.0
2018-Jun-16 22:25N 51°56' E 004°12'0 0.0
2018-Jun-16 21:58N 51°56' E 004°12'0 0.0
2018-Jun-16 21:28N 51°56' E 004°12'0 0.0
2018-Jun-16 20:58N 51°56' E 004°12'0 0.0
2018-Jun-16 20:28N 51°56' E 004°12'0 0.0
2018-Jun-16 19:58N 51°56' E 004°12'0 0.0
2018-Jun-16 19:28N 51°56' E 004°12'0 0.0
2018-Jun-16 18:58N 51°56' E 004°12'0 0.0
2018-Jun-16 18:28N 51°56' E 004°12'0 0.0
2018-Jun-16 17:58N 51°56' E 004°12'0 0.0
2018-Jun-16 17:28N 51°56' E 004°12'0 0.0
2018-Jun-16 16:58N 51°56' E 004°12'0 0.0
2018-Jun-16 16:30N 51°56' E 004°12'0 0.3
2018-Jun-16 16:00N 51°55' E 004°12'0 0.7
2018-Jun-16 15:30N 51°56' E 004°12'1 2.5
2018-Jun-16 15:00N 51°56' E 004°10'2 4.6
2018-Jun-16 14:30N 51°58' E 004°08'3 6.4
2018-Jun-16 14:00N 51°59' E 004°03'4 7.6
2018-Jun-16 13:30N 52°01' E 003°57'4 8.9
2018-Jun-16 13:00N 52°01' E 003°50'5 9.2
2018-Jun-16 12:30N 52°01' E 003°43'510.0
2018-Jun-16 12:00N 52°00' E 003°35'510.9
2018-Jun-16 11:30N 51°59' E 003°26'510.9
2018-Jun-16 11:00N 51°59' E 003°17'611.4
2018-Jun-16 10:30N 51°58' E 003°08'611.2
2018-Jun-16 09:59N 51°57' E 002°59'511.2
2018-Jun-16 09:30N 51°55' E 002°51'612.0
2018-Jun-16 09:00N 51°51' E 002°43'612.2
2018-Jun-16 08:30N 51°47' E 002°36'612.5
2018-Jun-16 08:00N 51°42' E 002°30'613.0
2018-Jun-16 07:30N 51°37' E 002°24'713.4
2018-Jun-16 07:00N 51°32' E 002°17'713.7
2018-Jun-16 06:30N 51°27' E 002°09'713.8
2018-Jun-16 06:00N 51°22' E 002°00'714.0
2018-Jun-16 05:31N 51°17' E 001°54'714.4
2018-Jun-16 05:01N 51°11' E 001°46'714.6
2018-Jun-16 04:30N 51°05' E 001°41'714.9
2018-Jun-16 04:00N 50°59' E 001°34'815.2
2018-Jun-16 03:31N 50°52' E 001°28'815.1
2018-Jun-16 03:01N 50°45' E 001°24'714.3
2018-Jun-16 02:31N 50°39' E 001°19'714.5
2018-Jun-16 02:00N 50°34' E 001°10'714.2
2018-Jun-16 01:31N 50°31' E 001°00'714.2
2018-Jun-16 01:01N 50°28' E 000°50'714.2
2018-Jun-16 00:30N 50°26' E 000°39'1014.7
2018-Jun-15 23:47N 50°23' E 000°23'615.2
2018-Jun-15 23:25N 50°21' E 000°15'715.7
2018-Jun-15 23:00N 50°19' E 000°05'816.1
2018-Jun-15 22:30N 50°17' W 000°07'816.6
2018-Jun-15 22:00N 50°15' W 000°19'816.9
2018-Jun-15 21:30N 50°13' W 000°32'917.0
2018-Jun-15 21:00N 50°11' W 000°45'917.2
2018-Jun-15 20:30N 50°09' W 000°58'817.3
2018-Jun-15 20:01N 50°07' W 001°11'916.9
2018-Jun-15 19:30N 50°05' W 001°24'1116.1
2018-Jun-15 18:48N 50°02' W 001°41'515.3
2018-Jun-15 18:30N 50°01' W 001°48'714.6
2018-Jun-15 18:01N 49°59' W 001°59'713.7
2018-Jun-15 17:31N 49°58' W 002°10'613.0
2018-Jun-15 17:01N 49°56' W 002°19'712.5
2018-Jun-15 16:29N 49°54' W 002°29'612.1
2018-Jun-15 16:00N 49°53' W 002°38'611.9
2018-Jun-15 15:30N 49°51' W 002°47'611.8
2018-Jun-15 15:00N 49°50' W 002°56'611.6
2018-Jun-15 14:28N 49°47' W 003°04'511.8
2018-Jun-15 14:00N 49°44' W 003°11'611.7
2018-Jun-15 13:31N 49°41' W 003°19'8012.4
2018-Jun-15 07:04N 48°58' W 005°03'114.1
2018-Jun-15 07:00N 48°58' W 005°04'714.3
2018-Jun-15 06:30N 48°55' W 005°14'714.4
2018-Jun-15 06:00N 48°52' W 005°24'714.4
2018-Jun-15 05:30N 48°49' W 005°34'5114.0
2018-Jun-15 01:52N 48°06' W 006°15'3413.8
2018-Jun-14 23:23N 47°37' W 006°42'  
Track history (hours):
 
Tides and Currents Weather Stations Pressure Air Temp Water Temp Dewpoint Dewpoint Depression Visibility Wind Speed Wind Dir Waves Ship Positions

Atromitos

Last reported at 2018-Jun-23 13:59 UTC. Time now 2018-Jun-23 14:00 UTC.
Position N 51°54' E 003°29'.

Length 336 m; draft 11.1 m.

Type: Tanker. MMSI: 538006651.

Date/timePositionNaut miles runAvg speedWind from/ knotsBaromVisibWave heightAir tempDewpointWater temp
2018-Jun-23 13:59N 51°54' E 003°29'0 0.2
2018-Jun-23 13:29N 51°54' E 003°29'0 0.1
2018-Jun-23 12:59N 51°54' E 003°29'0 0.0
2018-Jun-23 12:29N 51°54' E 003°29'0 0.1
2018-Jun-23 11:59N 51°54' E 003°29'0 0.0
2018-Jun-23 11:17N 51°54' E 003°29'0 0.0
2018-Jun-23 10:50N 51°54' E 003°29'0 0.0
2018-Jun-23 09:53N 51°54' E 003°29'0 0.0
2018-Jun-23 09:29N 51°54' E 003°29'0 0.2
2018-Jun-23 08:41N 51°54' E 003°29'0 0.2
2018-Jun-23 08:14N 51°54' E 003°29'0 0.1
2018-Jun-23 07:50N 51°54' E 003°29'0 0.1
2018-Jun-23 07:08N 51°54' E 003°29'0 0.2
2018-Jun-23 06:59N 51°54' E 003°29'0 0.1
2018-Jun-23 05:38N 51°54' E 003°29'0 0.1
2018-Jun-23 05:20N 51°54' E 003°29'0 0.0
2018-Jun-23 04:59N 51°54' E 003°29'0 0.0
2018-Jun-23 04:29N 51°54' E 003°29'0 0.0
2018-Jun-23 03:50N 51°54' E 003°29'0 0.1
2018-Jun-23 03:29N 51°54' E 003°29'0 0.0
2018-Jun-23 02:56N 51°54' E 003°29'0 0.0
2018-Jun-23 02:23N 51°54' E 003°29'0 0.1
2018-Jun-23 01:47N 51°54' E 003°29'0 0.1
2018-Jun-23 01:30N 51°54' E 003°29'0 0.1
2018-Jun-23 00:56N 51°54' E 003°29'0 0.1
2018-Jun-22 23:14N 51°54' E 003°29'0 0.0
2018-Jun-22 22:44N 51°54' E 003°29'0 0.0
2018-Jun-22 22:17N 51°54' E 003°29'0 0.0
2018-Jun-22 21:47N 51°54' E 003°29'0 0.0
2018-Jun-22 21:26N 51°54' E 003°29'0 0.2
2018-Jun-22 20:50N 51°54' E 003°29'0 0.1
2018-Jun-22 19:35N 51°54' E 003°29'0 0.2
2018-Jun-22 19:17N 51°54' E 003°29'0 0.0
2018-Jun-22 18:59N 51°54' E 003°29'0 0.1
2018-Jun-22 18:23N 51°54' E 003°29'0 0.0
2018-Jun-22 16:44N 51°54' E 003°29'0 0.0
2018-Jun-22 16:29N 51°54' E 003°29'0 0.0
2018-Jun-22 13:38N 51°54' E 003°29'0 0.1
2018-Jun-22 13:05N 51°54' E 003°29'0 0.1
2018-Jun-22 12:41N 51°54' E 003°29'0 0.0
2018-Jun-22 09:08N 51°54' E 003°29'0 0.1
2018-Jun-22 08:44N 51°54' E 003°29'0 0.0
2018-Jun-22 05:29N 51°54' E 003°29'0 0.0
2018-Jun-22 04:17N 51°54' E 003°29'0 0.0
2018-Jun-22 03:50N 51°54' E 003°29'0 0.0
2018-Jun-22 01:32N 51°54' E 003°29'0 0.1
2018-Jun-22 01:14N 51°54' E 003°29'0 0.0
2018-Jun-22 00:47N 51°54' E 003°29'0 0.1
2018-Jun-21 20:47N 51°54' E 003°29'0 1.5
2018-Jun-21 20:28N 51°55' E 003°30'1 2.2
2018-Jun-21 20:00N 51°54' E 003°28'3 6.0
2018-Jun-21 19:30N 51°55' E 003°23'5 9.8
2018-Jun-21 18:59N 51°59' E 003°21'510.4
2018-Jun-21 18:29N 52°03' E 003°28'713.7
2018-Jun-21 18:00N 52°03' E 003°39'713.9
2018-Jun-21 17:30N 52°04' E 003°50'4 8.0
2018-Jun-21 17:00N 52°03' E 003°56'2 3.9
2018-Jun-21 16:30N 52°01' E 003°57'612.4
2018-Jun-21 16:00N 51°58' E 004°07'3 4.7
2018-Jun-21 15:28N 51°57' E 004°10'0 0.0
2018-Jun-21 14:58N 51°57' E 004°10'0 0.0
2018-Jun-21 14:28N 51°57' E 004°10'0 0.0
2018-Jun-21 13:55N 51°57' E 004°10'0 0.0
2018-Jun-21 13:28N 51°57' E 004°10'0 0.0
2018-Jun-21 12:55N 51°57' E 004°10'0 0.0
2018-Jun-21 12:28N 51°57' E 004°10'0 0.0
2018-Jun-21 11:58N 51°57' E 004°10'0 0.0
2018-Jun-21 11:25N 51°57' E 004°10'0 0.0
2018-Jun-21 10:58N 51°57' E 004°10'0 0.0
2018-Jun-21 10:28N 51°57' E 004°10'0 0.0
2018-Jun-21 09:58N 51°57' E 004°10'0 0.0
2018-Jun-21 09:28N 51°57' E 004°10'0 0.0
2018-Jun-21 08:58N 51°57' E 004°10'0 0.0
2018-Jun-21 08:28N 51°57' E 004°10'0 0.0
2018-Jun-21 07:58N 51°57' E 004°10'0 0.0
2018-Jun-21 07:28N 51°57' E 004°10'0 0.0
2018-Jun-21 06:58N 51°57' E 004°10'0 0.0
2018-Jun-21 06:28N 51°57' E 004°10'0 0.0
2018-Jun-21 05:58N 51°57' E 004°10'0 0.0
2018-Jun-21 05:28N 51°57' E 004°10'0 0.0
2018-Jun-21 04:58N 51°57' E 004°10'0 0.0
2018-Jun-21 04:28N 51°57' E 004°10'0 0.0
2018-Jun-21 03:58N 51°57' E 004°10'0 0.0
2018-Jun-21 03:28N 51°57' E 004°10'0 0.0
2018-Jun-21 02:58N 51°57' E 004°10'0 0.0
2018-Jun-21 02:28N 51°57' E 004°10'0 0.0
2018-Jun-21 01:58N 51°57' E 004°10'0 0.0
2018-Jun-21 01:28N 51°57' E 004°10'0 0.0
2018-Jun-21 00:58N 51°57' E 004°10'0 0.0
2018-Jun-21 00:28N 51°57' E 004°10'0 0.0
2018-Jun-20 23:58N 51°57' E 004°10'0 0.0
2018-Jun-20 23:28N 51°57' E 004°10'0 0.0
2018-Jun-20 22:58N 51°57' E 004°10'0 0.0
2018-Jun-20 22:28N 51°57' E 004°10'0 0.0
2018-Jun-20 21:52N 51°57' E 004°10'0 0.0
2018-Jun-20 21:28N 51°57' E 004°10'0 0.0
2018-Jun-20 20:55N 51°57' E 004°10'0 0.0
2018-Jun-20 20:25N 51°57' E 004°10'0 0.0
2018-Jun-20 19:58N 51°57' E 004°10'0 0.0
2018-Jun-20 19:28N 51°57' E 004°10'0 0.0
2018-Jun-20 18:58N 51°57' E 004°10'0 0.0
2018-Jun-20 18:28N 51°57' E 004°10'0 0.0
2018-Jun-20 17:58N 51°57' E 004°10'0 0.0
2018-Jun-20 17:28N 51°57' E 004°10'0 0.0
2018-Jun-20 16:55N 51°57' E 004°10'0 0.0
2018-Jun-20 16:25N 51°57' E 004°10'0 0.0
2018-Jun-20 15:58N 51°57' E 004°10'0 0.0
2018-Jun-20 15:28N 51°57' E 004°10'0 0.0
2018-Jun-20 14:58N 51°57' E 004°10'0 0.0
2018-Jun-20 14:28N 51°57' E 004°10'0 0.0
2018-Jun-20 13:58N 51°57' E 004°10'0 0.0
2018-Jun-20 13:28N 51°57' E 004°10'0 0.0
2018-Jun-20 12:58N 51°57' E 004°10'0 0.0
2018-Jun-20 12:28N 51°57' E 004°10'0 0.0
2018-Jun-20 11:58N 51°57' E 004°10'0 0.0
2018-Jun-20 11:28N 51°57' E 004°10'0 0.0
2018-Jun-20 10:58N 51°57' E 004°10'0 0.0
2018-Jun-20 10:28N 51°57' E 004°10'0 0.0
2018-Jun-20 09:55N 51°57' E 004°10'0 0.0
2018-Jun-20 09:28N 51°57' E 004°10'0 0.0
2018-Jun-20 08:58N 51°57' E 004°10'0 0.0
2018-Jun-20 08:28N 51°57' E 004°10'0 0.0
2018-Jun-20 07:58N 51°57' E 004°10'0 0.0
2018-Jun-20 07:22N 51°57' E 004°10'0 0.0
2018-Jun-20 06:58N 51°57' E 004°10'0 0.0
2018-Jun-20 06:28N 51°57' E 004°10'0 0.0
2018-Jun-20 06:01N 51°57' E 004°10'0 0.0
2018-Jun-20 05:28N 51°57' E 004°10'0 0.0
2018-Jun-20 05:01N 51°57' E 004°10'0 0.0
2018-Jun-20 04:28N 51°57' E 004°10'0 0.0
2018-Jun-20 03:58N 51°57' E 004°10'0 0.0
2018-Jun-20 03:28N 51°57' E 004°10'0 0.0
2018-Jun-20 02:58N 51°57' E 004°10'0 0.0
2018-Jun-20 02:22N 51°57' E 004°10'0 0.0
2018-Jun-20 02:01N 51°57' E 004°10'0 0.0
2018-Jun-20 01:30N 51°57' E 004°10'0 0.0
2018-Jun-20 01:01N 51°57' E 004°10'0 0.0
2018-Jun-20 00:27N 51°57' E 004°10'0 0.0
2018-Jun-20 00:01N 51°57' E 004°10'0 0.0
2018-Jun-19 23:30N 51°57' E 004°10'0 0.0
2018-Jun-19 23:01N 51°57' E 004°10'0 0.0
2018-Jun-19 22:31N 51°57' E 004°10'0 0.0
2018-Jun-19 22:01N 51°57' E 004°10'0 0.0
2018-Jun-19 21:31N 51°57' E 004°10'0 0.0
2018-Jun-19 21:00N 51°57' E 004°10'0 0.0
2018-Jun-19 20:27N 51°57' E 004°10'0 0.0
2018-Jun-19 19:58N 51°57' E 004°10'0 0.0
2018-Jun-19 19:28N 51°57' E 004°10'0 0.0
2018-Jun-19 19:00N 51°57' E 004°10'0 0.0
2018-Jun-19 18:28N 51°57' E 004°10'0 0.0
2018-Jun-19 18:00N 51°57' E 004°10'0 0.0
2018-Jun-19 17:30N 51°57' E 004°10'0 0.0
2018-Jun-19 17:00N 51°57' E 004°10'0 0.0
2018-Jun-19 16:27N 51°57' E 004°10'0 0.0
2018-Jun-19 16:00N 51°57' E 004°10'0 0.0
2018-Jun-19 15:31N 51°57' E 004°10'0 0.0
2018-Jun-19 15:00N 51°57' E 004°10'0 0.0
2018-Jun-19 14:31N 51°57' E 004°10'0 0.0
2018-Jun-19 13:58N 51°57' E 004°10'0 0.0
2018-Jun-19 13:31N 51°57' E 004°10'0 0.0
2018-Jun-19 12:57N 51°57' E 004°10'0 0.0
2018-Jun-19 12:30N 51°57' E 004°10'0 0.0
2018-Jun-19 11:58N 51°57' E 004°10'0 0.0
2018-Jun-19 11:30N 51°57' E 004°10'0 0.0
2018-Jun-19 11:00N 51°57' E 004°10'0 0.0
2018-Jun-19 10:30N 51°57' E 004°10'0 0.0
2018-Jun-19 10:01N 51°57' E 004°10'0 0.0
2018-Jun-19 09:28N 51°57' E 004°10'0 0.0
2018-Jun-19 09:01N 51°57' E 004°10'0 0.0
2018-Jun-19 08:27N 51°57' E 004°10'0 0.0
2018-Jun-19 07:58N 51°57' E 004°10'0 0.0
2018-Jun-19 07:30N 51°57' E 004°10'0 0.0
2018-Jun-19 07:00N 51°57' E 004°10'0 0.0
2018-Jun-19 06:30N 51°57' E 004°10'0 0.0
2018-Jun-19 05:51N 51°57' E 004°10'0 0.0
2018-Jun-19 05:27N 51°57' E 004°10'0 0.0
2018-Jun-19 04:57N 51°57' E 004°10'0 0.0
2018-Jun-19 04:30N 51°57' E 004°10'0 0.0
2018-Jun-19 04:00N 51°57' E 004°10'0 0.0
2018-Jun-19 03:24N 51°57' E 004°10'0 0.0
2018-Jun-19 02:57N 51°57' E 004°10'0 0.0
2018-Jun-19 02:27N 51°57' E 004°10'0 0.0
2018-Jun-19 02:00N 51°57' E 004°10'0 0.0
2018-Jun-19 01:30N 51°57' E 004°10'0 0.0
2018-Jun-19 01:00N 51°57' E 004°10'0 0.0
2018-Jun-19 00:30N 51°57' E 004°10'0 0.0
2018-Jun-18 23:57N 51°57' E 004°10'0 0.0
2018-Jun-18 23:30N 51°57' E 004°10'0 0.0
2018-Jun-18 23:00N 51°57' E 004°10'0 0.0
2018-Jun-18 22:30N 51°57' E 004°10'0 0.0
2018-Jun-18 21:54N 51°57' E 004°10'0 0.0
2018-Jun-18 21:30N 51°57' E 004°10'0 0.0
2018-Jun-18 21:00N 51°57' E 004°10'0 0.0
2018-Jun-18 20:27N 51°57' E 004°10'0 0.0
2018-Jun-18 20:00N 51°57' E 004°10'0 0.0
2018-Jun-18 19:27N 51°57' E 004°10'0 0.0
2018-Jun-18 19:00N 51°57' E 004°10'0 0.0
2018-Jun-18 18:30N 51°57' E 004°10'0 0.1
2018-Jun-18 18:00N 51°57' E 004°10'1 1.0
2018-Jun-18 17:30N 51°56' E 004°10'1 2.7
2018-Jun-18 17:00N 51°56' E 004°12'0 0.3
2018-Jun-18 16:28N 51°56' E 004°12'0 0.0
2018-Jun-18 15:58N 51°56' E 004°12'0 0.0
2018-Jun-18 15:19N 51°56' E 004°12'0 0.0
2018-Jun-18 14:58N 51°56' E 004°12'0 0.0
2018-Jun-18 14:25N 51°56' E 004°12'0 0.0
2018-Jun-18 13:58N 51°56' E 004°12'0 0.0
2018-Jun-18 13:28N 51°56' E 004°12'0 0.0
2018-Jun-18 12:58N 51°56' E 004°12'0 0.0
2018-Jun-18 12:28N 51°56' E 004°12'0 0.0
2018-Jun-18 11:58N 51°56' E 004°12'0 0.0
2018-Jun-18 11:28N 51°56' E 004°12'0 0.0
2018-Jun-18 10:58N 51°56' E 004°12'0 0.0
2018-Jun-18 10:28N 51°56' E 004°12'0 0.0
2018-Jun-18 09:58N 51°56' E 004°12'0 0.0
2018-Jun-18 09:28N 51°56' E 004°12'0 0.0
2018-Jun-18 08:58N 51°56' E 004°12'0 0.0
2018-Jun-18 08:28N 51°56' E 004°12'0 0.0
2018-Jun-18 07:55N 51°56' E 004°12'0 0.0
2018-Jun-18 07:28N 51°56' E 004°12'0 0.0
2018-Jun-18 06:58N 51°56' E 004°12'0 0.0
2018-Jun-18 06:25N 51°56' E 004°12'0 0.0
2018-Jun-18 05:58N 51°56' E 004°12'0 0.0
2018-Jun-18 05:28N 51°56' E 004°12'0 0.0
2018-Jun-18 04:58N 51°56' E 004°12'0 0.0
2018-Jun-18 04:28N 51°56' E 004°12'0 0.0
2018-Jun-18 03:58N 51°56' E 004°12'0 0.0
2018-Jun-18 03:28N 51°56' E 004°12'0 0.0
2018-Jun-18 02:58N 51°56' E 004°12'0 0.0
2018-Jun-18 02:28N 51°56' E 004°12'0 0.0
2018-Jun-18 01:58N 51°56' E 004°12'0 0.0
2018-Jun-18 01:29N 51°56' E 004°12'0 0.0
2018-Jun-18 00:58N 51°56' E 004°12'0 0.0
2018-Jun-18 00:28N 51°56' E 004°12'0 0.0
2018-Jun-17 23:58N 51°56' E 004°12'0 0.0
2018-Jun-17 23:25N 51°56' E 004°12'0 0.0
2018-Jun-17 22:58N 51°56' E 004°12'0 0.0
2018-Jun-17 22:28N 51°56' E 004°12'0 0.0
2018-Jun-17 21:58N 51°56' E 004°12'0 0.0
2018-Jun-17 21:28N 51°56' E 004°12'0 0.0
2018-Jun-17 20:58N 51°56' E 004°12'0 0.0
2018-Jun-17 20:28N 51°56' E 004°12'0 0.0
2018-Jun-17 19:55N 51°56' E 004°12'0 0.0
2018-Jun-17 19:25N 51°56' E 004°12'0 0.0
2018-Jun-17 18:58N 51°56' E 004°12'0 0.0
2018-Jun-17 18:28N 51°56' E 004°12'0 0.0
2018-Jun-17 17:58N 51°56' E 004°12'0 0.0
2018-Jun-17 17:28N 51°56' E 004°12'0 0.0
2018-Jun-17 16:58N 51°56' E 004°12'0 0.0
2018-Jun-17 16:28N 51°56' E 004°12'0 0.0
2018-Jun-17 15:58N 51°56' E 004°12'0 0.0
2018-Jun-17 15:28N 51°56' E 004°12'0 0.0
2018-Jun-17 14:58N 51°56' E 004°12'0 0.0
2018-Jun-17 14:28N 51°56' E 004°12'0 0.0
2018-Jun-17 13:55N 51°56' E 004°12'0 0.0
2018-Jun-17 13:28N 51°56' E 004°12'0 0.0
2018-Jun-17 12:58N 51°56' E 004°12'0 0.0
2018-Jun-17 12:25N 51°56' E 004°12'0 0.0
2018-Jun-17 11:58N 51°56' E 004°12'0 0.0
2018-Jun-17 11:25N 51°56' E 004°12'0 0.0
2018-Jun-17 10:58N 51°56' E 004°12'0 0.0
2018-Jun-17 10:22N 51°56' E 004°12'0 0.0
2018-Jun-17 09:55N 51°56' E 004°12'0 0.0
2018-Jun-17 09:28N 51°56' E 004°12'0 0.0
2018-Jun-17 08:58N 51°56' E 004°12'0 0.0
2018-Jun-17 08:28N 51°56' E 004°12'0 0.0
2018-Jun-17 07:58N 51°56' E 004°12'0 0.0
2018-Jun-17 07:25N 51°56' E 004°12'0 0.0
2018-Jun-17 06:55N 51°56' E 004°12'0 0.0
2018-Jun-17 06:28N 51°56' E 004°12'0 0.0
2018-Jun-17 05:58N 51°56' E 004°12'0 0.0
2018-Jun-17 05:25N 51°56' E 004°12'0 0.0
2018-Jun-17 04:58N 51°56' E 004°12'0 0.0
2018-Jun-17 04:28N 51°56' E 004°12'0 0.0
2018-Jun-17 03:58N 51°56' E 004°12'0 0.0
2018-Jun-17 03:28N 51°56' E 004°12'0 0.0
2018-Jun-17 02:58N 51°56' E 004°12'0 0.0
2018-Jun-17 02:28N 51°56' E 004°12'0 0.0
2018-Jun-17 01:58N 51°56' E 004°12'0 0.0
2018-Jun-17 01:25N 51°56' E 004°12'0 0.0
2018-Jun-17 00:58N 51°56' E 004°12'0 0.0
2018-Jun-17 00:22N 51°56' E 004°12'0 0.0
2018-Jun-16 23:55N 51°56' E 004°12'0 0.0
2018-Jun-16 23:28N 51°56' E 004°12'0 0.0
2018-Jun-16 22:58N 51°56' E 004°12'0 0.0
2018-Jun-16 22:25N 51°56' E 004°12'0 0.0
2018-Jun-16 21:58N 51°56' E 004°12'0 0.0
2018-Jun-16 21:28N 51°56' E 004°12'0 0.0
2018-Jun-16 20:58N 51°56' E 004°12'0 0.0
2018-Jun-16 20:28N 51°56' E 004°12'0 0.0
2018-Jun-16 19:58N 51°56' E 004°12'0 0.0
2018-Jun-16 19:28N 51°56' E 004°12'0 0.0
2018-Jun-16 18:58N 51°56' E 004°12'0 0.0
2018-Jun-16 18:28N 51°56' E 004°12'0 0.0
2018-Jun-16 17:58N 51°56' E 004°12'0 0.0
2018-Jun-16 17:28N 51°56' E 004°12'0 0.0
2018-Jun-16 16:58N 51°56' E 004°12'0 0.0
2018-Jun-16 16:30N 51°56' E 004°12'0 0.3
2018-Jun-16 16:00N 51°55' E 004°12'0 0.7
2018-Jun-16 15:30N 51°56' E 004°12'1 2.5
2018-Jun-16 15:00N 51°56' E 004°10'2 4.6
2018-Jun-16 14:30N 51°58' E 004°08'3 6.4
2018-Jun-16 14:00N 51°59' E 004°03'4 7.6
2018-Jun-16 13:30N 52°01' E 003°57'4 8.9
2018-Jun-16 13:00N 52°01' E 003°50'5 9.2
2018-Jun-16 12:30N 52°01' E 003°43'510.0
2018-Jun-16 12:00N 52°00' E 003°35'510.9
2018-Jun-16 11:30N 51°59' E 003°26'510.9
2018-Jun-16 11:00N 51°59' E 003°17'611.4
2018-Jun-16 10:30N 51°58' E 003°08'611.2
2018-Jun-16 09:59N 51°57' E 002°59'511.2
2018-Jun-16 09:30N 51°55' E 002°51'612.0
2018-Jun-16 09:00N 51°51' E 002°43'612.2
2018-Jun-16 08:30N 51°47' E 002°36'612.5
2018-Jun-16 08:00N 51°42' E 002°30'613.0
2018-Jun-16 07:30N 51°37' E 002°24'713.4
2018-Jun-16 07:00N 51°32' E 002°17'713.7
2018-Jun-16 06:30N 51°27' E 002°09'713.8
2018-Jun-16 06:00N 51°22' E 002°00'714.0
2018-Jun-16 05:31N 51°17' E 001°54'714.4
2018-Jun-16 05:01N 51°11' E 001°46'714.6
2018-Jun-16 04:30N 51°05' E 001°41'714.9
2018-Jun-16 04:00N 50°59' E 001°34'815.2
2018-Jun-16 03:31N 50°52' E 001°28'815.1
2018-Jun-16 03:01N 50°45' E 001°24'714.3
2018-Jun-16 02:31N 50°39' E 001°19'714.5
2018-Jun-16 02:00N 50°34' E 001°10'714.2
2018-Jun-16 01:31N 50°31' E 001°00'714.2
2018-Jun-16 01:01N 50°28' E 000°50'714.2
2018-Jun-16 00:30N 50°26' E 000°39'1014.7
2018-Jun-15 23:47N 50°23' E 000°23'615.2
2018-Jun-15 23:25N 50°21' E 000°15'715.7
2018-Jun-15 23:00N 50°19' E 000°05'816.1
2018-Jun-15 22:30N 50°17' W 000°07'816.6
2018-Jun-15 22:00N 50°15' W 000°19'816.9
2018-Jun-15 21:30N 50°13' W 000°32'917.0
2018-Jun-15 21:00N 50°11' W 000°45'917.2
2018-Jun-15 20:30N 50°09' W 000°58'817.3
2018-Jun-15 20:01N 50°07' W 001°11'916.9
2018-Jun-15 19:30N 50°05' W 001°24'1116.1
2018-Jun-15 18:48N 50°02' W 001°41'515.3
2018-Jun-15 18:30N 50°01' W 001°48'714.6
2018-Jun-15 18:01N 49°59' W 001°59'713.7
2018-Jun-15 17:31N 49°58' W 002°10'613.0
2018-Jun-15 17:01N 49°56' W 002°19'712.5
2018-Jun-15 16:29N 49°54' W 002°29'612.1
2018-Jun-15 16:00N 49°53' W 002°38'611.9
2018-Jun-15 15:30N 49°51' W 002°47'611.8
2018-Jun-15 15:00N 49°50' W 002°56'611.6
2018-Jun-15 14:28N 49°47' W 003°04'511.8
2018-Jun-15 14:00N 49°44' W 003°11'611.7
2018-Jun-15 13:31N 49°41' W 003°19'8012.4
2018-Jun-15 07:04N 48°58' W 005°03'114.1
2018-Jun-15 07:00N 48°58' W 005°04'714.3
2018-Jun-15 06:30N 48°55' W 005°14'714.4
2018-Jun-15 06:00N 48°52' W 005°24'714.4
2018-Jun-15 05:30N 48°49' W 005°34'5114.0
2018-Jun-15 01:52N 48°06' W 006°15'3413.8
2018-Jun-14 23:23N 47°37' W 006°42'  

Dump ship's entire track history